Time;durP1;ratioP1;P1;durP2;ratioP2;P2;SDS_P1;SDS_P2;PMS_P1;PMS_P2;Temp;Humidity;BMP_temperature;BMP_pressure;BME280_temperature;BME280_humidity;BME280_pressure;Samples;Min_cycle;Max_cycle;Signal;HPM_P1;HPM_P2
2024/01/28 00:00:49;;;;;;;7.40;4.13;;;;;;;;;;5007249;28;20515;-83
2024/01/28 00:03:19;;;;;;;7.70;3.57;;;;;;;;;;5001059;28;20448;-83
2024/01/28 00:05:47;;;;;;;10.53;4.60;;;;;;;;;;5002726;28;20444;-84
2024/01/28 00:08:15;;;;;;;6.90;3.50;;;;;;;;;;4989680;28;20464;-86
2024/01/28 00:10:42;;;;;;;7.63;4.10;;;;;;;;;;5002735;28;20843;-86
2024/01/28 00:13:09;;;;;;;7.57;4.57;;;;;;;;;;5003350;28;20567;-87
2024/01/28 00:15:37;;;;;;;7.40;3.73;;;;;;;;;;5002355;28;22132;-86
2024/01/28 00:18:04;;;;;;;8.30;4.03;;;;;;;;;;5004084;28;20534;-84
2024/01/28 00:20:34;;;;;;;9.83;4.07;;;;;;;;;;4999541;28;20492;-85
2024/01/28 00:23:07;;;;;;;8.17;3.90;;;;;;;;;;5008066;28;20459;-85
2024/01/28 00:25:34;;;;;;;8.37;3.00;;;;;;;;;;5015541;28;20475;-85
2024/01/28 00:28:02;;;;;;;4.57;3.73;;;;;;;;;;5013262;28;20491;-85
2024/01/28 00:30:32;;;;;;;7.30;3.63;;;;;;;;;;5007635;28;20986;-83
2024/01/28 00:32:59;;;;;;;6.20;3.07;;;;;;;;;;5006076;28;20472;-84
2024/01/28 00:35:27;;;;;;;3.60;3.10;;;;;;;;;;5014254;28;20450;-83
2024/01/28 00:37:57;;;;;;;8.00;2.80;;;;;;;;;;5008609;28;20521;-86
2024/01/28 00:40:25;;;;;;;5.93;3.80;;;;;;;;;;5000728;28;20571;-85
2024/01/28 00:42:57;;;;;;;6.23;3.73;;;;;;;;;;5005977;28;20475;-85
2024/01/28 00:45:29;;;;;;;7.87;3.80;;;;;;;;;;5007220;28;20511;-85
2024/01/28 00:47:59;;;;;;;5.20;3.30;;;;;;;;;;5001576;28;20469;-85
2024/01/28 00:50:30;;;;;;;6.10;3.30;;;;;;;;;;5004854;28;20460;-85
2024/01/28 00:52:57;;;;;;;9.47;3.67;;;;;;;;;;5004888;28;20576;-84
2024/01/28 00:55:26;;;;;;;7.53;3.33;;;;;;;;;;5003458;28;21026;-85
2024/01/28 00:57:54;;;;;;;7.47;3.90;;;;;;;;;;5005948;28;20528;-85
2024/01/28 01:00:22;;;;;;;8.40;3.70;;;;;;;;;;5007488;28;20488;-85
2024/01/28 01:02:52;;;;;;;7.03;3.43;;;;;;;;;;4998360;28;20491;-86
2024/01/28 01:05:19;;;;;;;9.57;3.60;;;;;;;;;;5003820;28;20450;-85
2024/01/28 01:07:49;;;;;;;4.20;3.13;;;;;;;;;;5002088;28;20541;-85
2024/01/28 01:10:22;;;;;;;5.77;3.13;;;;;;;;;;5005006;28;20458;-86
2024/01/28 01:12:52;;;;;;;6.50;4.00;;;;;;;;;;5018431;28;20503;-85
2024/01/28 01:15:22;;;;;;;5.70;3.27;;;;;;;;;;4999881;28;20461;-85
2024/01/28 01:17:50;;;;;;;6.77;4.63;;;;;;;;;;5003639;28;20515;-82
2024/01/28 01:20:20;;;;;;;9.67;3.73;;;;;;;;;;5003824;28;20490;-84
2024/01/28 01:22:47;;;;;;;9.27;3.50;;;;;;;;;;4995679;28;20509;-85
2024/01/28 01:25:15;;;;;;;4.07;3.23;;;;;;;;;;4998950;28;20450;-85
2024/01/28 01:27:45;;;;;;;7.17;3.27;;;;;;;;;;4995695;28;20537;-84
2024/01/28 01:30:17;;;;;;;6.37;2.87;;;;;;;;;;4999846;28;20446;-86
2024/01/28 01:32:45;;;;;;;10.37;3.80;;;;;;;;;;5000701;28;20464;-85
2024/01/28 01:35:13;;;;;;;5.27;3.33;;;;;;;;;;5013417;28;20436;-83
2024/01/28 01:37:41;;;;;;;6.03;3.70;;;;;;;;;;5015179;28;21543;-86
2024/01/28 01:40:14;;;;;;;5.97;3.37;;;;;;;;;;5013856;28;20463;-83
2024/01/28 01:42:43;;;;;;;7.50;3.60;;;;;;;;;;5016481;28;20447;-84
2024/01/28 01:45:12;;;;;;;6.03;2.90;;;;;;;;;;5009872;28;20519;-84
2024/01/28 01:47:40;;;;;;;7.50;3.50;;;;;;;;;;5016077;28;20486;-83
2024/01/28 01:50:10;;;;;;;6.33;2.67;;;;;;;;;;5010562;28;21127;-86
2024/01/28 01:52:41;;;;;;;8.80;2.83;;;;;;;;;;5009867;28;20443;-85
2024/01/28 01:55:11;;;;;;;9.33;3.40;;;;;;;;;;5005983;28;20479;-84
2024/01/28 01:57:41;;;;;;;6.00;2.70;;;;;;;;;;5009609;28;20467;-85
2024/01/28 02:00:14;;;;;;;5.20;3.10;;;;;;;;;;5011392;28;20560;-85
2024/01/28 02:02:45;;;;;;;11.23;3.40;;;;;;;;;;5010389;28;20902;-84
2024/01/28 02:05:15;;;;;;;5.50;2.87;;;;;;;;;;5017152;28;20486;-85
2024/01/28 02:07:43;;;;;;;6.83;3.20;;;;;;;;;;5022211;28;20495;-84
2024/01/28 02:10:11;;;;;;;6.17;2.83;;;;;;;;;;5018545;28;20479;-84
2024/01/28 02:12:38;;;;;;;4.33;2.73;;;;;;;;;;5006033;28;20487;-84
2024/01/28 02:15:06;;;;;;;4.90;3.30;;;;;;;;;;5014374;28;20450;-83
2024/01/28 02:17:36;;;;;;;5.50;3.23;;;;;;;;;;5016917;28;20473;-84
2024/01/28 02:20:16;;;;;;;5.87;3.03;;;;;;;;;;5021114;28;21451;-84
2024/01/28 02:22:45;;;;;;;10.57;3.00;;;;;;;;;;5010414;28;20485;-84
2024/01/28 02:25:13;;;;;;;7.70;3.07;;;;;;;;;;5015509;28;20482;-85
2024/01/28 02:27:46;;;;;;;5.03;2.80;;;;;;;;;;5006903;28;20509;-84
2024/01/28 02:30:14;;;;;;;8.20;2.93;;;;;;;;;;5009706;28;20452;-83
2024/01/28 02:32:53;;;;;;;8.20;2.97;;;;;;;;;;5003610;28;20463;-85
2024/01/28 02:35:23;;;;;;;3.80;2.30;;;;;;;;;;5010979;28;20486;-84
2024/01/28 02:37:53;;;;;;;5.63;2.87;;;;;;;;;;5004600;28;20496;-86
2024/01/28 02:40:22;;;;;;;8.10;3.07;;;;;;;;;;5005129;28;21699;-85
2024/01/28 02:42:56;;;;;;;7.30;2.43;;;;;;;;;;5008898;28;20455;-86
2024/01/28 02:45:27;;;;;;;7.60;3.33;;;;;;;;;;4990115;28;20468;-85
2024/01/28 02:47:57;;;;;;;6.83;3.30;;;;;;;;;;5001311;28;20498;-84
2024/01/28 02:50:25;;;;;;;5.17;2.50;;;;;;;;;;4999360;28;20559;-83
2024/01/28 02:52:55;;;;;;;6.80;2.53;;;;;;;;;;5011173;28;20515;-85
2024/01/28 02:55:23;;;;;;;6.20;2.80;;;;;;;;;;5022195;28;20447;-84
2024/01/28 02:57:52;;;;;;;7.17;2.70;;;;;;;;;;5007158;28;20520;-85
2024/01/28 03:00:21;;;;;;;5.73;2.93;;;;;;;;;;5012099;28;20445;-85
2024/01/28 03:02:48;;;;;;;10.53;3.13;;;;;;;;;;5007568;28;20487;-82
2024/01/28 03:05:16;;;;;;;2.50;2.27;;;;;;;;;;5020122;28;20432;-83
2024/01/28 03:07:45;;;;;;;3.27;2.73;;;;;;;;;;5014266;28;20580;-83
2024/01/28 03:10:12;;;;;;;11.00;3.20;;;;;;;;;;5010170;28;20443;-84
2024/01/28 03:12:41;;;;;;;7.00;2.93;;;;;;;;;;5003991;28;20983;-85
2024/01/28 03:15:11;;;;;;;8.13;3.13;;;;;;;;;;5000056;28;20965;-83
2024/01/28 03:17:38;;;;;;;7.30;3.00;;;;;;;;;;5016843;28;20483;-85
2024/01/28 03:20:06;;;;;;;5.33;2.83;;;;;;;;;;5010300;28;20472;-83
2024/01/28 03:22:34;;;;;;;8.83;3.13;;;;;;;;;;5016263;28;20489;-83
2024/01/28 03:25:05;;;;;;;5.33;2.87;;;;;;;;;;5011796;28;20452;-84
2024/01/28 03:27:32;;;;;;;6.10;3.23;;;;;;;;;;4993638;28;20483;-82
2024/01/28 03:29:59;;;;;;;4.07;2.63;;;;;;;;;;5006086;28;20573;-85
2024/01/28 03:32:27;;;;;;;2.97;2.23;;;;;;;;;;5011470;28;20498;-84
2024/01/28 03:35:02;;;;;;;7.73;3.67;;;;;;;;;;5011012;28;22264;-85
2024/01/28 03:37:29;;;;;;;9.77;2.87;;;;;;;;;;5010889;28;20487;-84
2024/01/28 03:39:56;;;;;;;6.83;4.30;;;;;;;;;;5015950;28;20447;-84
2024/01/28 03:42:24;;;;;;;3.57;2.97;;;;;;;;;;5010375;28;20501;-83
2024/01/28 03:44:51;;;;;;;5.70;2.80;;;;;;;;;;5012246;28;20515;-84
2024/01/28 03:47:19;;;;;;;10.90;3.33;;;;;;;;;;5008963;28;20492;-84
2024/01/28 03:49:46;;;;;;;5.57;2.90;;;;;;;;;;5003443;28;20462;-86
2024/01/28 03:52:14;;;;;;;6.33;3.50;;;;;;;;;;5006283;28;20478;-86
2024/01/28 03:54:47;;;;;;;4.50;3.00;;;;;;;;;;5002618;28;20551;-84
2024/01/28 03:57:16;;;;;;;4.20;2.43;;;;;;;;;;5005173;28;20543;-85
2024/01/28 03:59:45;;;;;;;5.40;3.00;;;;;;;;;;4998174;28;20498;-86
2024/01/28 04:02:15;;;;;;;8.90;3.03;;;;;;;;;;5002838;28;20485;-84
2024/01/28 04:04:42;;;;;;;6.23;2.60;;;;;;;;;;4993428;28;20476;-85
2024/01/28 04:07:10;;;;;;;2.97;2.23;;;;;;;;;;5002838;28;20463;-85
2024/01/28 04:09:38;;;;;;;5.77;3.30;;;;;;;;;;4998033;28;20520;-84
2024/01/28 04:12:05;;;;;;;5.53;2.57;;;;;;;;;;4998126;28;20487;-84
2024/01/28 04:14:33;;;;;;;4.20;2.80;;;;;;;;;;4998473;28;20502;-82
2024/01/28 04:17:00;;;;;;;5.50;2.87;;;;;;;;;;4997890;28;20478;-83
2024/01/28 04:19:27;;;;;;;3.77;3.27;;;;;;;;;;4991368;28;20450;-85
2024/01/28 04:21:55;;;;;;;5.33;2.80;;;;;;;;;;4999274;28;20488;-84
2024/01/28 04:24:22;;;;;;;2.93;1.47;;;;;;;;;;4999865;28;21783;-84
2024/01/28 04:26:49;;;;;;;3.80;3.17;;;;;;;;;;4997033;28;20489;-83
2024/01/28 04:29:16;;;;;;;4.60;2.70;;;;;;;;;;5003579;28;20469;-83
2024/01/28 04:31:44;;;;;;;6.77;3.13;;;;;;;;;;5016756;28;20450;-83
2024/01/28 04:34:11;;;;;;;3.80;2.20;;;;;;;;;;5022196;28;20438;-84
2024/01/28 04:36:38;;;;;;;3.10;2.20;;;;;;;;;;5025241;28;20466;-85
2024/01/28 04:39:05;;;;;;;8.60;2.80;;;;;;;;;;5028286;28;20514;-84
2024/01/28 04:41:33;;;;;;;4.30;3.00;;;;;;;;;;5027977;28;20482;-84
2024/01/28 04:44:00;;;;;;;5.10;2.30;;;;;;;;;;5012806;28;20534;-84
2024/01/28 04:46:27;;;;;;;4.10;2.30;;;;;;;;;;5014241;28;20530;-83
2024/01/28 04:48:55;;;;;;;5.43;2.50;;;;;;;;;;5023630;28;20477;-83
2024/01/28 04:51:22;;;;;;;4.30;2.40;;;;;;;;;;5020659;28;20784;-85
2024/01/28 04:53:49;;;;;;;3.67;2.17;;;;;;;;;;5010855;28;20446;-84
2024/01/28 04:56:16;;;;;;;4.10;1.97;;;;;;;;;;5001541;28;20447;-84
2024/01/28 04:58:43;;;;;;;8.43;2.17;;;;;;;;;;4997573;28;20475;-84
2024/01/28 05:01:11;;;;;;;3.20;1.83;;;;;;;;;;4998454;28;20467;-85
2024/01/28 05:03:40;;;;;;;2.33;2.10;;;;;;;;;;5000607;28;20975;-85
2024/01/28 05:06:09;;;;;;;5.07;2.80;;;;;;;;;;5014075;28;21028;-85
2024/01/28 05:08:36;;;;;;;4.67;2.40;;;;;;;;;;5017072;28;20483;-83
2024/01/28 05:11:05;;;;;;;5.93;1.90;;;;;;;;;;5006365;28;20455;-84
2024/01/28 05:13:33;;;;;;;3.70;2.53;;;;;;;;;;5016758;28;20541;-84
2024/01/28 05:16:01;;;;;;;2.57;2.03;;;;;;;;;;5009567;28;20502;-84
2024/01/28 05:18:30;;;;;;;8.77;3.20;;;;;;;;;;5003779;28;20490;-83
2024/01/28 05:20:58;;;;;;;5.17;2.27;;;;;;;;;;5006165;28;20478;-83
2024/01/28 05:23:27;;;;;;;3.43;1.90;;;;;;;;;;5007759;28;20471;-85
2024/01/28 05:25:56;;;;;;;3.77;1.93;;;;;;;;;;5008717;28;20490;-85
2024/01/28 05:28:23;;;;;;;7.13;2.93;;;;;;;;;;5005055;28;20910;-85
2024/01/28 05:30:50;;;;;;;4.77;2.43;;;;;;;;;;5010912;28;20451;-84
2024/01/28 05:33:18;;;;;;;5.17;3.07;;;;;;;;;;5012717;28;20497;-85
2024/01/28 05:35:46;;;;;;;4.77;2.20;;;;;;;;;;5003948;28;20531;-84
2024/01/28 05:38:13;;;;;;;4.53;2.77;;;;;;;;;;5003278;28;20470;-84
2024/01/28 05:40:41;;;;;;;5.03;2.10;;;;;;;;;;5013304;28;20460;-84
2024/01/28 05:43:08;;;;;;;3.47;1.87;;;;;;;;;;5011920;28;20550;-85
2024/01/28 05:45:35;;;;;;;5.77;1.80;;;;;;;;;;5010320;28;20498;-83
2024/01/28 05:48:03;;;;;;;4.60;2.50;;;;;;;;;;4999735;28;20530;-82
2024/01/28 05:50:31;;;;;;;7.00;2.70;;;;;;;;;;5005469;28;20478;-84
2024/01/28 05:52:58;;;;;;;3.97;2.40;;;;;;;;;;4999984;28;20462;-83
2024/01/28 05:55:25;;;;;;;2.80;2.27;;;;;;;;;;5009288;28;21014;-85
2024/01/28 05:57:53;;;;;;;4.13;2.40;;;;;;;;;;5007992;28;20642;-84
2024/01/28 06:00:21;;;;;;;6.40;3.13;;;;;;;;;;5006293;28;20465;-84
2024/01/28 06:02:48;;;;;;;2.83;2.20;;;;;;;;;;5004497;28;20573;-84
2024/01/28 06:05:15;;;;;;;4.33;2.30;;;;;;;;;;5006177;28;20530;-85
2024/01/28 06:07:42;;;;;;;5.23;2.70;;;;;;;;;;5002683;28;20641;-84
2024/01/28 06:10:10;;;;;;;5.97;3.00;;;;;;;;;;5000248;28;20470;-86
2024/01/28 06:12:39;;;;;;;3.67;2.70;;;;;;;;;;5006353;28;20479;-85
2024/01/28 06:15:08;;;;;;;4.70;2.50;;;;;;;;;;4998759;28;20474;-83
2024/01/28 06:17:38;;;;;;;6.60;2.43;;;;;;;;;;4998627;28;20556;-85
2024/01/28 06:20:07;;;;;;;6.30;2.90;;;;;;;;;;5005061;28;20483;-85
2024/01/28 06:22:34;;;;;;;7.77;2.90;;;;;;;;;;5019309;28;20490;-86
2024/01/28 06:25:02;;;;;;;3.63;2.80;;;;;;;;;;4998727;28;20486;-84
2024/01/28 06:27:32;;;;;;;4.00;3.10;;;;;;;;;;4997535;28;20851;-84
2024/01/28 06:29:59;;;;;;;6.40;2.50;;;;;;;;;;5004352;28;20594;-84
2024/01/28 06:32:26;;;;;;;4.20;3.07;;;;;;;;;;5003959;28;20467;-85
2024/01/28 06:34:56;;;;;;;5.97;2.50;;;;;;;;;;5009509;28;20464;-84
2024/01/28 06:37:26;;;;;;;5.57;3.00;;;;;;;;;;5008329;28;20478;-86
2024/01/28 06:39:53;;;;;;;9.37;3.90;;;;;;;;;;5005085;28;20549;-86
2024/01/28 06:42:20;;;;;;;7.07;3.40;;;;;;;;;;5008010;28;21774;-85
2024/01/28 06:44:48;;;;;;;3.17;1.93;;;;;;;;;;4997431;28;20861;-84
2024/01/28 06:47:15;;;;;;;5.63;2.53;;;;;;;;;;5003060;28;20489;-84
2024/01/28 06:49:43;;;;;;;5.40;2.70;;;;;;;;;;5005554;28;21063;-85
2024/01/28 06:52:12;;;;;;;3.17;2.27;;;;;;;;;;4998725;28;20476;-84
2024/01/28 06:54:42;;;;;;;3.83;2.07;;;;;;;;;;4998516;28;20534;-85
2024/01/28 06:57:15;;;;;;;5.63;2.80;;;;;;;;;;5004891;28;20519;-83
2024/01/28 06:59:43;;;;;;;3.83;2.50;;;;;;;;;;4996690;28;21685;-84
2024/01/28 07:02:11;;;;;;;4.93;2.57;;;;;;;;;;5005168;28;20476;-85
2024/01/28 07:04:40;;;;;;;2.73;2.30;;;;;;;;;;5004357;28;20454;-83
2024/01/28 07:07:08;;;;;;;4.63;2.80;;;;;;;;;;5005321;28;21568;-86
2024/01/28 07:09:37;;;;;;;3.60;2.13;;;;;;;;;;4994799;28;20497;-84
2024/01/28 07:12:06;;;;;;;5.93;2.80;;;;;;;;;;5003962;28;21024;-84
2024/01/28 07:14:34;;;;;;;7.13;3.00;;;;;;;;;;4997509;28;20465;-86
2024/01/28 07:17:05;;;;;;;12.30;3.03;;;;;;;;;;5005395;28;20484;-85
2024/01/28 07:19:35;;;;;;;6.07;3.03;;;;;;;;;;5005041;28;20464;-84
2024/01/28 07:22:02;;;;;;;10.83;3.27;;;;;;;;;;4995845;28;20489;-83
2024/01/28 07:24:30;;;;;;;3.93;2.60;;;;;;;;;;5009522;28;20451;-82
2024/01/28 07:26:57;;;;;;;3.30;2.37;;;;;;;;;;5023441;28;20862;-84
2024/01/28 07:29:24;;;;;;;7.63;3.00;;;;;;;;;;5022907;28;20453;-84
2024/01/28 07:31:52;;;;;;;3.97;3.07;;;;;;;;;;5017319;28;20466;-85
2024/01/28 07:34:20;;;;;;;7.97;3.10;;;;;;;;;;5009706;28;20476;-85
2024/01/28 07:36:49;;;;;;;3.70;1.83;;;;;;;;;;5014342;28;20463;-85
2024/01/28 07:39:16;;;;;;;2.83;2.40;;;;;;;;;;5010267;28;20444;-83
2024/01/28 07:41:44;;;;;;;2.83;2.20;;;;;;;;;;5017439;28;20452;-84
2024/01/28 07:44:11;;;;;;;3.00;2.40;;;;;;;;;;5006613;28;20456;-84
2024/01/28 07:46:38;;;;;;;2.60;2.40;;;;;;;;;;4999125;28;20481;-83
2024/01/28 07:49:16;;;;;;;4.20;2.30;;;;;;;;;;4990579;28;20875;-84
2024/01/28 07:51:44;;;;;;;2.50;2.20;;;;;;;;;;4987673;28;20463;-86
2024/01/28 07:54:13;;;;;;;4.60;2.43;;;;;;;;;;4993565;28;20447;-84
2024/01/28 07:56:43;;;;;;;8.73;2.60;;;;;;;;;;4998888;28;20466;-83
2024/01/28 07:59:11;;;;;;;5.67;2.23;;;;;;;;;;5001848;28;20482;-83
2024/01/28 08:01:38;;;;;;;4.67;1.93;;;;;;;;;;4989752;28;20478;-82
2024/01/28 08:04:07;;;;;;;4.23;3.00;;;;;;;;;;4992393;28;20483;-83
2024/01/28 08:06:37;;;;;;;4.03;2.27;;;;;;;;;;4998431;28;20574;-85
2024/01/28 08:09:05;;;;;;;2.27;1.97;;;;;;;;;;4992365;28;20452;-84
2024/01/28 08:11:32;;;;;;;4.87;2.40;;;;;;;;;;4999307;28;21026;-86
2024/01/28 08:14:01;;;;;;;5.13;2.67;;;;;;;;;;4994164;28;20446;-83
2024/01/28 08:16:32;;;;;;;4.87;2.20;;;;;;;;;;4995879;28;20484;-84
2024/01/28 08:19:04;;;;;;;7.53;2.60;;;;;;;;;;5000073;28;20455;-84
2024/01/28 08:21:31;;;;;;;3.20;2.03;;;;;;;;;;5002522;28;20504;-85
2024/01/28 08:23:59;;;;;;;7.00;1.87;;;;;;;;;;4996499;28;20491;-84
2024/01/28 08:26:31;;;;;;;3.63;2.80;;;;;;;;;;5003852;28;20474;-84
2024/01/28 08:28:58;;;;;;;6.47;3.10;;;;;;;;;;5004889;28;21703;-82
2024/01/28 08:31:25;;;;;;;7.73;3.40;;;;;;;;;;4994124;28;20840;-84
2024/01/28 08:33:52;;;;;;;3.43;2.57;;;;;;;;;;4994514;28;21024;-84
2024/01/28 08:36:24;;;;;;;5.80;2.77;;;;;;;;;;5007023;28;20453;-83
2024/01/28 08:38:52;;;;;;;4.10;1.80;;;;;;;;;;5019712;28;20477;-84
2024/01/28 08:41:19;;;;;;;3.17;1.83;;;;;;;;;;5018974;28;20451;-82
2024/01/28 08:43:46;;;;;;;4.53;2.13;;;;;;;;;;5004946;28;20514;-84
2024/01/28 08:46:16;;;;;;;4.47;2.07;;;;;;;;;;4998341;28;20459;-84
2024/01/28 08:48:54;;;;;;;3.40;2.30;;;;;;;;;;4996886;28;20841;-86
2024/01/28 08:51:22;;;;;;;6.10;2.37;;;;;;;;;;5000158;28;20507;-85
2024/01/28 08:53:50;;;;;;;4.97;2.37;;;;;;;;;;5000544;28;20469;-86
2024/01/28 08:56:18;;;;;;;2.13;1.93;;;;;;;;;;5003369;28;20932;-85
2024/01/28 08:58:47;;;;;;;3.40;1.90;;;;;;;;;;4998503;28;20443;-84
2024/01/28 09:01:22;;;;;;;3.37;2.10;;;;;;;;;;5002149;28;20464;-85
2024/01/28 09:03:51;;;;;;;3.47;2.30;;;;;;;;;;5001397;28;21046;-84
2024/01/28 09:06:19;;;;;;;2.87;2.03;;;;;;;;;;5002445;28;20460;-84
2024/01/28 09:08:46;;;;;;;5.00;2.63;;;;;;;;;;5000278;28;20453;-85
2024/01/28 09:11:15;;;;;;;3.23;2.17;;;;;;;;;;5006365;28;20495;-84
2024/01/28 09:13:43;;;;;;;8.50;2.93;;;;;;;;;;5001739;28;21196;-86
2024/01/28 09:16:10;;;;;;;3.60;1.97;;;;;;;;;;5000624;28;20459;-84
2024/01/28 09:18:42;;;;;;;5.10;3.07;;;;;;;;;;4993720;28;20962;-82
2024/01/28 09:21:10;;;;;;;6.37;2.30;;;;;;;;;;5000817;28;20479;-83
2024/01/28 09:23:37;;;;;;;2.30;2.10;;;;;;;;;;4999596;28;20488;-84
2024/01/28 09:26:05;;;;;;;3.43;2.10;;;;;;;;;;4996043;28;20487;-86
2024/01/28 09:28:33;;;;;;;5.73;2.47;;;;;;;;;;5000738;28;20459;-83
2024/01/28 09:31:00;;;;;;;3.80;2.13;;;;;;;;;;5006099;28;20456;-85
2024/01/28 09:33:27;;;;;;;5.17;2.30;;;;;;;;;;5003263;28;20474;-86
2024/01/28 09:35:55;;;;;;;4.73;2.10;;;;;;;;;;5007722;28;20485;-85
2024/01/28 09:38:22;;;;;;;3.73;2.13;;;;;;;;;;5001824;28;20552;-84
2024/01/28 09:40:50;;;;;;;4.23;2.13;;;;;;;;;;5000674;28;21528;-84
2024/01/28 09:43:17;;;;;;;8.00;2.50;;;;;;;;;;4998984;28;20537;-85
2024/01/28 09:45:45;;;;;;;3.73;2.20;;;;;;;;;;5003145;28;20493;-84
2024/01/28 09:48:13;;;;;;;4.33;2.70;;;;;;;;;;5002512;28;20518;-85
2024/01/28 09:50:40;;;;;;;3.30;2.00;;;;;;;;;;4998570;28;20463;-84
2024/01/28 09:53:10;;;;;;;5.10;2.23;;;;;;;;;;4994888;28;20455;-83
2024/01/28 09:55:37;;;;;;;2.73;1.80;;;;;;;;;;5003041;28;20509;-83
2024/01/28 09:58:05;;;;;;;1.37;1.27;;;;;;;;;;4996693;28;20472;-86
2024/01/28 10:00:32;;;;;;;7.27;2.03;;;;;;;;;;4993393;28;20459;-84
2024/01/28 10:03:00;;;;;;;2.53;1.87;;;;;;;;;;5004689;28;20557;-83
2024/01/28 10:05:27;;;;;;;2.70;2.03;;;;;;;;;;5002613;28;20632;-86
2024/01/28 10:08:05;;;;;;;3.23;2.10;;;;;;;;;;5003930;28;20486;-88
2024/01/28 10:10:36;;;;;;;4.10;2.30;;;;;;;;;;5003021;28;20938;-85
2024/01/28 10:13:04;;;;;;;4.47;2.20;;;;;;;;;;5004856;28;20454;-81
2024/01/28 10:15:31;;;;;;;1.60;1.50;;;;;;;;;;5006074;28;20455;-84
2024/01/28 10:17:59;;;;;;;4.10;2.03;;;;;;;;;;5007754;28;20496;-85
2024/01/28 10:20:30;;;;;;;4.97;2.30;;;;;;;;;;4993353;28;20508;-84
2024/01/28 10:22:58;;;;;;;5.80;2.30;;;;;;;;;;4991438;28;20974;-87
2024/01/28 10:25:30;;;;;;;3.50;2.67;;;;;;;;;;5002589;28;20459;-84
2024/01/28 10:28:01;;;;;;;2.97;2.20;;;;;;;;;;5003666;28;20566;-86
2024/01/28 10:30:28;;;;;;;4.23;2.37;;;;;;;;;;4995889;28;20475;-85
2024/01/28 10:32:56;;;;;;;7.90;2.60;;;;;;;;;;4999080;28;20542;-85
2024/01/28 10:35:25;;;;;;;4.87;2.60;;;;;;;;;;4996294;28;20498;-85
2024/01/28 10:37:53;;;;;;;3.50;2.13;;;;;;;;;;5009378;28;21162;-86
2024/01/28 10:40:22;;;;;;;4.63;2.90;;;;;;;;;;5003736;28;20463;-87
2024/01/28 10:42:51;;;;;;;3.63;2.10;;;;;;;;;;5011957;28;21067;-84
2024/01/28 10:45:19;;;;;;;5.83;3.57;;;;;;;;;;5011559;28;20451;-84
2024/01/28 10:47:52;;;;;;;5.00;2.80;;;;;;;;;;5007058;28;20572;-86
2024/01/28 10:50:22;;;;;;;4.03;2.20;;;;;;;;;;5009927;28;20505;-84
2024/01/28 10:52:54;;;;;;;3.47;2.50;;;;;;;;;;5026563;28;20542;-85
2024/01/28 10:55:22;;;;;;;2.83;2.20;;;;;;;;;;5015701;28;20449;-85
2024/01/28 10:57:52;;;;;;;4.00;2.40;;;;;;;;;;5004125;28;20507;-86
2024/01/28 11:00:33;;;;;;;2.63;2.43;;;;;;;;;;5009736;28;20462;-84
2024/01/28 11:03:07;;;;;;;5.50;2.60;;;;;;;;;;4999121;28;21160;-85
2024/01/28 11:05:41;;;;;;;3.00;2.10;;;;;;;;;;5003564;28;20463;-84
2024/01/28 11:08:09;;;;;;;4.47;2.57;;;;;;;;;;5000687;28;20523;-83
2024/01/28 11:10:37;;;;;;;4.90;2.80;;;;;;;;;;4997176;28;20441;-82
2024/01/28 11:13:10;;;;;;;4.20;2.07;;;;;;;;;;4994653;28;20532;-83
2024/01/28 11:15:42;;;;;;;3.80;2.40;;;;;;;;;;5016375;28;20451;-83
2024/01/28 11:18:11;;;;;;;4.60;2.50;;;;;;;;;;5028060;28;21608;-83
2024/01/28 11:20:41;;;;;;;4.10;2.97;;;;;;;;;;5027868;28;20458;-83
2024/01/28 11:23:19;;;;;;;4.20;2.70;;;;;;;;;;5029978;28;20470;-83
2024/01/28 11:25:47;;;;;;;3.70;2.03;;;;;;;;;;5029589;28;20451;-84
2024/01/28 11:28:18;;;;;;;4.10;2.50;;;;;;;;;;5018878;28;20502;-85
2024/01/28 11:30:52;;;;;;;2.80;2.60;;;;;;;;;;5015904;28;20459;-85
2024/01/28 11:33:20;;;;;;;6.10;2.63;;;;;;;;;;5009694;28;20448;-84
2024/01/28 11:35:47;;;;;;;5.30;2.10;;;;;;;;;;5012351;28;20451;-84
2024/01/28 11:38:22;;;;;;;2.37;2.17;;;;;;;;;;5005489;28;20480;-85
2024/01/28 11:40:59;;;;;;;4.00;3.00;;;;;;;;;;5007762;28;20441;-84
2024/01/28 11:43:29;;;;;;;3.33;2.50;;;;;;;;;;5010139;28;20489;-84
2024/01/28 11:45:57;;;;;;;3.67;2.40;;;;;;;;;;5000982;28;20459;-83
2024/01/28 11:48:25;;;;;;;6.90;3.03;;;;;;;;;;5006798;28;20475;-84
2024/01/28 11:50:52;;;;;;;5.03;2.70;;;;;;;;;;4998585;28;21274;-83
2024/01/28 11:53:20;;;;;;;2.80;2.20;;;;;;;;;;5008181;28;20483;-85
2024/01/28 11:55:47;;;;;;;5.43;2.70;;;;;;;;;;5007241;28;20482;-84
2024/01/28 11:58:16;;;;;;;4.70;1.70;;;;;;;;;;4998213;28;20476;-84
2024/01/28 12:00:43;;;;;;;3.57;2.50;;;;;;;;;;5005809;28;20533;-85
2024/01/28 12:03:11;;;;;;;3.20;2.43;;;;;;;;;;5007384;28;20497;-86
2024/01/28 12:05:38;;;;;;;3.40;2.80;;;;;;;;;;5006802;28;20444;-85
2024/01/28 12:08:05;;;;;;;4.47;2.40;;;;;;;;;;4999512;28;20483;-84
2024/01/28 12:10:36;;;;;;;5.07;2.13;;;;;;;;;;5004282;28;20522;-85
2024/01/28 12:13:05;;;;;;;5.33;2.80;;;;;;;;;;5004233;28;20457;-86
2024/01/28 12:15:32;;;;;;;5.97;2.63;;;;;;;;;;5005692;28;22215;-87
2024/01/28 12:18:00;;;;;;;7.00;2.70;;;;;;;;;;5004495;28;20474;-86
2024/01/28 12:20:27;;;;;;;3.93;2.40;;;;;;;;;;4999823;28;20468;-84
2024/01/28 12:23:03;;;;;;;5.20;2.57;;;;;;;;;;4995961;28;20526;-85
2024/01/28 12:25:40;;;;;;;3.10;2.67;;;;;;;;;;5003864;28;20466;-86
2024/01/28 12:28:07;;;;;;;5.07;2.33;;;;;;;;;;5244868;23;20509;-86
2024/01/28 12:31:03;;;;;;;3.67;2.43;;;;;;;;;;4979066;28;21008;-84
2024/01/28 12:33:36;;;;;;;3.83;1.97;;;;;;;;;;4961820;28;20469;-84
2024/01/28 12:36:06;;;;;;;5.70;3.10;;;;;;;;;;4977371;28;20452;-86
2024/01/28 12:38:34;;;;;;;4.57;1.90;;;;;;;;;;4963277;28;20521;-83
2024/01/28 12:41:11;;;;;;;5.07;2.50;;;;;;;;;;4963875;28;20468;-86
2024/01/28 12:43:40;;;;;;;4.30;2.23;;;;;;;;;;4961244;28;20477;-85
2024/01/28 12:46:08;;;;;;;3.27;2.10;;;;;;;;;;4964468;28;20551;-87
2024/01/28 12:48:36;;;;;;;3.87;1.93;;;;;;;;;;4965672;28;20484;-85
2024/01/28 12:51:03;;;;;;;2.47;2.07;;;;;;;;;;4962534;28;20464;-85
2024/01/28 12:53:33;;;;;;;3.93;2.33;;;;;;;;;;4964703;28;20445;-85
2024/01/28 12:56:01;;;;;;;6.73;2.40;;;;;;;;;;4986132;28;20472;-84
2024/01/28 12:58:33;;;;;;;2.93;2.23;;;;;;;;;;4974940;28;20513;-84
2024/01/28 13:01:03;;;;;;;2.23;2.03;;;;;;;;;;4969597;28;20455;-84
2024/01/28 13:03:31;;;;;;;2.50;2.30;;;;;;;;;;4966530;28;20468;-84
2024/01/28 13:06:01;;;;;;;2.60;1.60;;;;;;;;;;4966947;28;20452;-83
2024/01/28 13:08:29;;;;;;;3.03;2.20;;;;;;;;;;4982225;28;20508;-86
2024/01/28 13:11:02;;;;;;;3.03;2.20;;;;;;;;;;4962044;28;20833;-85
2024/01/28 13:13:34;;;;;;;2.10;1.90;;;;;;;;;;4964513;28;20453;-83
2024/01/28 13:16:03;;;;;;;2.97;1.97;;;;;;;;;;4969813;28;20896;-86
2024/01/28 13:18:31;;;;;;;5.37;2.20;;;;;;;;;;4972749;28;20469;-86
2024/01/28 13:21:04;;;;;;;3.13;2.20;;;;;;;;;;4974238;28;20449;-86
2024/01/28 13:23:33;;;;;;;2.83;1.63;;;;;;;;;;4974318;28;20484;-84
2024/01/28 13:26:01;;;;;;;2.40;2.10;;;;;;;;;;4974671;28;20963;-84
2024/01/28 13:28:29;;;;;;;2.40;2.00;;;;;;;;;;4962478;28;20607;-85
2024/01/28 13:30:56;;;;;;;2.07;1.90;;;;;;;;;;4964871;28;20503;-85
2024/01/28 13:33:26;;;;;;;2.77;2.20;;;;;;;;;;4961323;28;20714;-85
2024/01/28 13:35:54;;;;;;;3.47;2.23;;;;;;;;;;4966910;28;20507;-85
2024/01/28 13:38:25;;;;;;;2.83;2.47;;;;;;;;;;4960724;28;20484;-85
2024/01/28 13:40:55;;;;;;;2.40;2.20;;;;;;;;;;4961734;28;20456;-86
2024/01/28 13:43:22;;;;;;;2.63;2.17;;;;;;;;;;4962437;28;20467;-86
2024/01/28 13:45:50;;;;;;;2.80;2.20;;;;;;;;;;4959799;28;20466;-85
2024/01/28 13:48:17;;;;;;;2.60;2.40;;;;;;;;;;4962038;28;21051;-83
2024/01/28 13:50:44;;;;;;;2.40;2.20;;;;;;;;;;4965962;28;20452;-85
2024/01/28 13:53:12;;;;;;;3.77;2.50;;;;;;;;;;4962377;28;20483;-84
2024/01/28 13:55:42;;;;;;;3.73;2.17;;;;;;;;;;4963740;28;20904;-85
2024/01/28 13:58:09;;;;;;;4.10;2.20;;;;;;;;;;4962615;28;20471;-85
2024/01/28 14:00:36;;;;;;;3.40;1.57;;;;;;;;;;4960168;28;20818;-86
2024/01/28 14:03:06;;;;;;;3.20;1.97;;;;;;;;;;4961555;28;20452;-86
2024/01/28 14:05:34;;;;;;;5.33;2.10;;;;;;;;;;4959251;28;20491;-84
2024/01/28 14:08:06;;;;;;;2.40;1.73;;;;;;;;;;4961718;28;20487;-85
2024/01/28 14:10:37;;;;;;;6.90;1.93;;;;;;;;;;4962373;28;20539;-86
2024/01/28 14:13:07;;;;;;;2.20;1.80;;;;;;;;;;4962568;28;20465;-85
2024/01/28 14:15:38;;;;;;;2.03;1.80;;;;;;;;;;4971204;28;20544;-85
2024/01/28 14:18:06;;;;;;;2.47;1.87;;;;;;;;;;4969258;28;20730;-85
2024/01/28 14:20:34;;;;;;;4.30;2.00;;;;;;;;;;4964552;28;20551;-85
2024/01/28 14:23:01;;;;;;;3.07;2.30;;;;;;;;;;4963736;28;20545;-86
2024/01/28 14:25:29;;;;;;;3.10;1.93;;;;;;;;;;4968085;28;20488;-85
2024/01/28 14:28:08;;;;;;;3.27;1.60;;;;;;;;;;4983739;28;20472;-86
2024/01/28 14:31:01;;;;;;;1.90;1.50;;;;;;;;;;4956438;28;20452;-84
2024/01/28 14:33:31;;;;;;;2.83;1.20;;;;;;;;;;4969071;28;20463;-85
2024/01/28 14:35:59;;;;;;;5.00;1.70;;;;;;;;;;4984698;28;20492;-84
2024/01/28 14:38:26;;;;;;;1.87;1.77;;;;;;;;;;4951006;28;21004;-86
2024/01/28 14:40:54;;;;;;;3.37;1.83;;;;;;;;;;4966550;28;20904;-87
2024/01/28 14:43:25;;;;;;;2.70;1.83;;;;;;;;;;4968272;28;20457;-85
2024/01/28 14:45:58;;;;;;;1.53;1.37;;;;;;;;;;4966177;28;20506;-85
2024/01/28 14:48:27;;;;;;;2.50;2.03;;;;;;;;;;4971465;28;20578;-86
2024/01/28 14:51:04;;;;;;;4.50;1.70;;;;;;;;;;4971886;28;20471;-85
2024/01/28 14:53:35;;;;;;;1.50;1.40;;;;;;;;;;4973252;28;20857;-86